createdAt,value
2019-04-25T00:00:49.270Z,932.46
2019-04-25T00:01:49.260Z,932.50
2019-04-25T00:02:49.230Z,932.50
2019-04-25T00:03:49.213Z,932.46
2019-04-25T00:04:49.188Z,932.51
2019-04-25T00:05:49.167Z,932.48
2019-04-25T00:06:49.133Z,932.48
2019-04-25T00:07:49.131Z,932.43
2019-04-25T00:08:49.111Z,932.44
2019-04-25T00:09:49.072Z,932.47
2019-04-25T00:10:49.153Z,932.44
2019-04-25T00:11:49.059Z,932.43
2019-04-25T00:12:49.030Z,932.45
2019-04-25T00:13:49.006Z,932.42
2019-04-25T00:14:48.998Z,932.44
2019-04-25T00:15:48.965Z,932.37
2019-04-25T00:16:49.273Z,932.42
2019-04-25T00:17:48.923Z,932.45
2019-04-25T00:18:48.901Z,932.46
2019-04-25T00:19:48.882Z,932.47
2019-04-25T00:20:48.865Z,932.55
2019-04-25T00:21:48.862Z,932.54
2019-04-25T00:22:49.259Z,932.63
2019-04-25T00:23:49.313Z,932.65
2019-04-25T00:24:49.476Z,932.66
2019-04-25T00:25:49.199Z,932.65
2019-04-25T00:26:48.732Z,932.63
2019-04-25T00:27:48.724Z,932.64
2019-04-25T00:28:48.814Z,932.65
2019-04-25T00:29:48.813Z,932.67
2019-04-25T00:30:48.649Z,932.70
2019-04-25T00:31:49.298Z,932.68
2019-04-25T00:32:51.041Z,932.68
2019-04-25T00:33:49.500Z,932.67
2019-04-25T00:34:48.551Z,932.65
2019-04-25T00:35:48.551Z,932.59
2019-04-25T00:36:48.935Z,932.68
2019-04-25T00:37:48.507Z,932.64
2019-04-25T00:38:49.257Z,932.59
2019-04-25T00:39:49.096Z,932.56
2019-04-25T00:40:48.444Z,932.59
2019-04-25T00:41:49.212Z,932.63
2019-04-25T00:42:48.938Z,932.63
2019-04-25T00:43:48.388Z,932.62
2019-04-25T00:44:49.623Z,932.65
2019-04-25T00:45:49.523Z,932.57
2019-04-25T00:46:50.134Z,932.62
2019-04-25T00:47:48.302Z,932.56
2019-04-25T00:48:48.277Z,932.60
2019-04-25T00:49:48.267Z,932.61
2019-04-25T00:50:48.240Z,932.56
2019-04-25T00:51:48.306Z,932.60
2019-04-25T00:52:48.344Z,932.58
2019-04-25T00:53:48.181Z,932.55
2019-04-25T00:54:48.352Z,932.62
2019-04-25T00:55:48.647Z,932.59
2019-04-25T00:56:49.423Z,932.55
2019-04-25T00:57:49.226Z,932.60
2019-04-25T00:58:48.864Z,932.59
2019-04-25T00:59:48.889Z,932.63
2019-04-25T01:00:48.999Z,932.63
2019-04-25T01:01:48.078Z,932.63
2019-04-25T01:02:47.991Z,932.66
2019-04-25T01:03:47.972Z,932.65
2019-04-25T01:04:47.947Z,932.66
2019-04-25T01:05:47.947Z,932.69
2019-04-25T01:06:47.911Z,932.70
2019-04-25T01:07:47.888Z,932.68
2019-04-25T01:08:47.866Z,932.67
2019-04-25T01:09:47.909Z,932.71
2019-04-25T01:10:48.018Z,932.70
2019-04-25T01:11:48.003Z,932.69
2019-04-25T01:12:48.324Z,932.67
2019-04-25T01:13:48.247Z,932.70
2019-04-25T01:14:48.395Z,932.68
2019-04-25T01:15:48.481Z,932.68
2019-04-25T01:16:48.579Z,932.67
2019-04-25T01:17:47.683Z,932.71
2019-04-25T01:18:47.661Z,932.72
2019-04-25T01:19:47.632Z,932.70
2019-04-25T01:20:47.618Z,932.71
2019-04-25T01:21:49.080Z,932.68
2019-04-25T01:22:47.568Z,932.70
2019-04-25T01:23:48.092Z,932.68
2019-04-25T01:24:47.515Z,932.67
2019-04-25T01:25:47.868Z,932.71
2019-04-25T01:26:47.567Z,932.73
2019-04-25T01:27:47.702Z,932.71
2019-04-25T01:28:47.654Z,932.72
2019-04-25T01:29:47.851Z,932.70
2019-04-25T01:30:47.898Z,932.68
2019-04-25T01:31:47.997Z,932.72
2019-04-25T01:32:48.298Z,932.70
2019-04-25T01:33:48.261Z,932.64
2019-04-25T01:34:47.321Z,932.71
2019-04-25T01:35:47.392Z,932.62
2019-04-25T01:36:47.279Z,932.65
2019-04-25T01:37:47.791Z,932.68
2019-04-25T01:38:47.415Z,932.69
2019-04-25T01:39:47.535Z,932.67
2019-04-25T01:40:48.527Z,932.67
2019-04-25T01:41:47.677Z,932.68
2019-04-25T01:42:47.947Z,932.68
2019-04-25T01:43:48.440Z,932.68
2019-04-25T01:44:47.898Z,932.67
2019-04-25T01:45:48.061Z,932.65
2019-04-25T01:46:48.157Z,932.73
2019-04-25T01:47:48.872Z,932.70
2019-04-25T01:48:48.516Z,932.67
2019-04-25T01:49:47.019Z,932.69
2019-04-25T01:50:46.970Z,932.69
2019-04-25T01:51:46.954Z,932.68
2019-04-25T01:52:47.109Z,932.69
2019-04-25T01:53:46.929Z,932.69
2019-04-25T01:54:46.902Z,932.71
2019-04-25T01:55:56.171Z,932.69
2019-04-25T01:56:46.870Z,932.69
2019-04-25T01:57:46.851Z,932.72
2019-04-25T01:58:46.825Z,932.68
2019-04-25T01:59:46.799Z,932.72
2019-04-25T02:00:47.318Z,932.67
2019-04-25T02:01:46.763Z,932.70
2019-04-25T02:02:46.736Z,932.67
2019-04-25T02:03:46.717Z,932.69
2019-04-25T02:04:47.231Z,932.68
2019-04-25T02:05:47.617Z,932.66
2019-04-25T02:06:46.658Z,932.65
2019-04-25T02:07:47.372Z,932.64
2019-04-25T02:08:46.616Z,932.67
2019-04-25T02:09:47.537Z,932.67
2019-04-25T02:10:47.106Z,932.67
2019-04-25T02:11:46.557Z,932.58
2019-04-25T02:12:46.537Z,932.62
2019-04-25T02:13:46.511Z,932.68
2019-04-25T02:14:46.487Z,932.62
2019-04-25T02:15:46.469Z,932.63
2019-04-25T02:16:46.445Z,932.61
2019-04-25T02:17:46.426Z,932.60
2019-04-25T02:18:46.386Z,932.55
2019-04-25T02:19:46.387Z,932.60
2019-04-25T02:20:46.361Z,932.56
2019-04-25T02:21:46.348Z,932.60
2019-04-25T02:22:46.320Z,932.57
2019-04-25T02:23:46.300Z,932.58
2019-04-25T02:24:46.276Z,932.54
2019-04-25T02:25:46.261Z,932.57
2019-04-25T02:26:46.240Z,932.55
2019-04-25T02:27:46.218Z,932.58
2019-04-25T02:28:46.179Z,932.54
2019-04-25T02:29:46.157Z,932.59
2019-04-25T02:30:46.206Z,932.58
2019-04-25T02:31:46.143Z,932.54
2019-04-25T02:32:46.124Z,932.57
2019-04-25T02:33:46.096Z,932.57
2019-04-25T02:34:46.053Z,932.54
2019-04-25T02:35:46.837Z,932.56
2019-04-25T02:36:47.072Z,932.49
2019-04-25T02:37:46.012Z,932.48
2019-04-25T02:38:45.995Z,932.49
2019-04-25T02:39:45.944Z,932.42
2019-04-25T02:40:45.980Z,932.46
2019-04-25T02:41:45.927Z,932.47
2019-04-25T02:42:45.901Z,932.40
2019-04-25T02:43:45.885Z,932.45
2019-04-25T02:44:45.863Z,932.38
2019-04-25T02:45:45.841Z,932.41
2019-04-25T02:46:45.803Z,932.39
2019-04-25T02:47:46.233Z,932.35
2019-04-25T02:48:45.785Z,932.35
2019-04-25T02:49:45.759Z,932.35
2019-04-25T02:50:46.299Z,932.31
2019-04-25T02:51:45.723Z,932.32
2019-04-25T02:52:45.694Z,932.33
2019-04-25T02:53:45.678Z,932.25
2019-04-25T02:54:45.634Z,932.27
2019-04-25T02:55:45.640Z,932.23
2019-04-25T02:56:46.701Z,932.21
2019-04-25T02:57:45.592Z,932.21
2019-04-25T02:58:45.569Z,932.23
2019-04-25T02:59:45.549Z,932.22
2019-04-25T03:00:57.097Z,932.21
2019-04-25T03:01:45.521Z,932.18
2019-04-25T03:02:45.491Z,932.18
2019-04-25T03:03:45.475Z,932.19
2019-04-25T03:04:45.449Z,932.17
2019-04-25T03:05:47.737Z,932.15
2019-04-25T03:06:45.658Z,932.15
2019-04-25T03:07:45.384Z,932.12
2019-04-25T03:08:45.374Z,932.16
2019-04-25T03:09:45.690Z,932.14
2019-04-25T03:10:45.322Z,932.14
2019-04-25T03:11:47.558Z,932.17
2019-04-25T03:12:45.274Z,932.13
2019-04-25T03:13:45.258Z,932.16
2019-04-25T03:14:45.219Z,932.15
2019-04-25T03:15:45.218Z,932.14
2019-04-25T03:16:45.182Z,932.13
2019-04-25T03:17:45.166Z,932.10
2019-04-25T03:18:45.152Z,932.11
2019-04-25T03:19:45.134Z,932.12
2019-04-25T03:20:45.321Z,932.14
2019-04-25T03:21:45.390Z,932.09
2019-04-25T03:22:45.056Z,932.04
2019-04-25T03:23:46.398Z,932.10
2019-04-25T03:24:45.894Z,932.08
2019-04-25T03:25:45.243Z,932.07
2019-04-25T03:26:44.988Z,932.06
2019-04-25T03:27:45.493Z,932.08
2019-04-25T03:28:44.944Z,932.18
2019-04-25T03:29:45.709Z,932.15
2019-04-25T03:30:45.188Z,932.16
2019-04-25T03:31:45.246Z,932.15
2019-04-25T03:32:45.271Z,932.17
2019-04-25T03:33:45.974Z,932.16
2019-04-25T03:34:44.825Z,932.16
2019-04-25T03:35:44.800Z,932.17
2019-04-25T03:36:44.784Z,932.18
2019-04-25T03:37:44.759Z,932.19
2019-04-25T03:38:44.713Z,932.18
2019-04-25T03:39:44.714Z,932.24
2019-04-25T03:40:44.674Z,932.21
2019-04-25T03:41:45.524Z,932.21
2019-04-25T03:42:44.653Z,932.22
2019-04-25T03:43:44.615Z,932.24
2019-04-25T03:44:44.607Z,932.23
2019-04-25T03:45:45.273Z,932.22
2019-04-25T03:46:44.570Z,932.20
2019-04-25T03:47:44.546Z,932.18
2019-04-25T03:48:44.524Z,932.18
2019-04-25T03:49:44.509Z,932.14
2019-04-25T03:50:44.484Z,932.16
2019-04-25T03:51:44.662Z,932.12
2019-04-25T03:52:44.473Z,932.09
2019-04-25T03:53:44.403Z,932.13
2019-04-25T03:54:44.401Z,932.14
2019-04-25T03:55:44.464Z,932.16
2019-04-25T03:56:53.321Z,932.13
2019-04-25T03:57:44.476Z,932.09
2019-04-25T03:58:44.318Z,932.13
2019-04-25T03:59:44.297Z,932.11
2019-04-25T04:00:44.800Z,932.17
2019-04-25T04:01:44.235Z,932.13
2019-04-25T04:02:44.478Z,932.13
2019-04-25T04:03:44.214Z,932.13
2019-04-25T04:04:44.189Z,932.10
2019-04-25T04:05:44.267Z,932.09
2019-04-25T04:06:44.211Z,932.08
2019-04-25T04:07:44.128Z,932.07
2019-04-25T04:08:44.428Z,932.09
2019-04-25T04:09:44.066Z,932.07
2019-04-25T04:10:44.065Z,932.07
2019-04-25T04:11:44.044Z,932.01
2019-04-25T04:12:44.395Z,931.99
2019-04-25T04:13:44.194Z,932.01
2019-04-25T04:14:43.995Z,931.97
2019-04-25T04:15:43.957Z,932.00
2019-04-25T04:16:44.410Z,932.00
2019-04-25T04:17:43.920Z,932.01
2019-04-25T04:18:44.259Z,932.00
2019-04-25T04:19:45.241Z,931.98
2019-04-25T04:20:43.843Z,932.00
2019-04-25T04:21:43.819Z,931.94
2019-04-25T04:22:43.905Z,931.99
2019-04-25T04:23:43.796Z,931.94
2019-04-25T04:24:44.093Z,931.95
2019-04-25T04:25:43.751Z,931.99
2019-04-25T04:26:43.713Z,932.00
2019-04-25T04:27:43.863Z,931.93
2019-04-25T04:28:43.692Z,931.98
2019-04-25T04:29:43.667Z,932.00
2019-04-25T04:30:45.432Z,931.96
2019-04-25T04:31:43.627Z,932.00
2019-04-25T04:32:44.134Z,932.00
2019-04-25T04:33:43.587Z,931.96
2019-04-25T04:34:45.488Z,932.00
2019-04-25T04:35:44.153Z,931.92
2019-04-25T04:36:43.776Z,931.95
2019-04-25T04:37:43.489Z,931.98
2019-04-25T04:38:44.250Z,931.92
2019-04-25T04:39:43.789Z,931.93
2019-04-25T04:40:44.150Z,931.91
2019-04-25T04:41:43.733Z,931.88
2019-04-25T04:42:43.578Z,931.91
2019-04-25T04:43:44.156Z,931.93
2019-04-25T04:44:43.712Z,931.93
2019-04-25T04:45:45.590Z,931.92
2019-04-25T04:46:43.963Z,931.89
2019-04-25T04:47:43.441Z,931.92
2019-04-25T04:48:43.819Z,931.89
2019-04-25T04:49:43.921Z,931.89
2019-04-25T04:50:43.508Z,931.85
2019-04-25T04:51:44.392Z,931.85
2019-04-25T04:52:43.999Z,931.84
2019-04-25T04:53:43.845Z,931.83
2019-04-25T04:54:43.954Z,931.83
2019-04-25T04:55:43.247Z,931.88
2019-04-25T04:56:43.803Z,931.85
2019-04-25T04:57:44.716Z,931.82
2019-04-25T04:58:43.276Z,931.81
2019-04-25T04:59:43.887Z,931.80
2019-04-25T05:00:43.820Z,931.80
2019-04-25T05:01:43.286Z,931.77
2019-04-25T05:02:43.432Z,931.81
2019-04-25T05:03:44.079Z,931.74
2019-04-25T05:04:43.596Z,931.78
2019-04-25T05:05:44.029Z,931.73
2019-04-25T05:06:43.709Z,931.79
2019-04-25T05:07:43.906Z,931.78
2019-04-25T05:08:43.543Z,931.79
2019-04-25T05:09:43.552Z,931.80
2019-04-25T05:10:43.344Z,931.77
2019-04-25T05:11:44.174Z,931.76
2019-04-25T05:12:43.767Z,931.75
2019-04-25T05:13:44.086Z,931.71
2019-04-25T05:14:43.635Z,931.73
2019-04-25T05:15:42.987Z,931.74
2019-04-25T05:16:43.263Z,931.71
2019-04-25T05:17:44.018Z,931.67
2019-04-25T05:18:43.731Z,931.69
2019-04-25T05:19:43.417Z,931.74
2019-04-25T05:20:43.984Z,931.73
2019-04-25T05:21:43.568Z,931.69
2019-04-25T05:22:42.560Z,931.74
2019-04-25T05:23:44.026Z,931.68
2019-04-25T05:24:43.838Z,931.70
2019-04-25T05:25:44.094Z,931.64
2019-04-25T05:26:44.024Z,931.68
2019-04-25T05:27:59.078Z,931.65
2019-04-25T05:28:42.437Z,931.64
2019-04-25T05:29:43.922Z,931.60
2019-04-25T05:30:43.607Z,931.59
2019-04-25T05:31:43.913Z,931.63
2019-04-25T05:32:44.175Z,931.67
2019-04-25T05:33:43.597Z,931.65
2019-04-25T05:34:42.309Z,931.63
2019-04-25T05:35:42.282Z,931.66
2019-04-25T05:36:43.863Z,931.66
2019-04-25T05:37:43.602Z,931.61
2019-04-25T05:39:43.478Z,931.67
2019-04-25T05:40:43.774Z,931.62
2019-04-25T05:41:43.977Z,931.65
2019-04-25T05:42:42.146Z,931.62
2019-04-25T05:43:43.529Z,931.64
2019-04-25T05:44:42.098Z,931.63
2019-04-25T05:45:42.081Z,931.61
2019-04-25T05:46:42.057Z,931.63
2019-04-25T05:47:42.016Z,931.60
2019-04-25T05:48:43.776Z,931.59
2019-04-25T05:49:41.983Z,931.55
2019-04-25T05:50:43.616Z,931.58
2019-04-25T05:51:43.754Z,931.58
2019-04-25T05:52:41.909Z,931.56
2019-04-25T05:53:43.327Z,931.56
2019-04-25T05:54:41.885Z,931.56
2019-04-25T05:55:41.869Z,931.57
2019-04-25T05:56:43.751Z,931.52
2019-04-25T05:57:47.674Z,931.50
2019-04-25T05:58:41.806Z,931.51
2019-04-25T05:59:41.769Z,931.50
2019-04-25T06:00:41.767Z,931.44
2019-04-25T06:01:43.376Z,931.48
2019-04-25T06:02:41.716Z,931.50
2019-04-25T06:03:41.699Z,931.48
2019-04-25T06:04:43.481Z,931.50
2019-04-25T06:05:43.241Z,931.51
2019-04-25T06:06:41.614Z,931.43
2019-04-25T06:07:43.162Z,931.46
2019-04-25T06:08:41.577Z,931.48
2019-04-25T06:09:41.551Z,931.43
2019-04-25T06:10:41.556Z,931.41
2019-04-25T06:11:41.546Z,931.43
2019-04-25T06:12:41.562Z,931.42
2019-04-25T06:13:43.287Z,931.41
2019-04-25T06:14:43.292Z,931.39
2019-04-25T06:15:43.361Z,931.41
2019-04-25T06:16:41.421Z,931.35
2019-04-25T06:17:41.397Z,931.43
2019-04-25T06:18:41.384Z,931.40
2019-04-25T06:19:41.363Z,931.40
2019-04-25T06:20:41.336Z,931.41
2019-04-25T06:21:41.319Z,931.44
2019-04-25T06:22:41.295Z,931.41
2019-04-25T06:23:41.270Z,931.37
2019-04-25T06:24:41.255Z,931.30
2019-04-25T06:25:41.225Z,931.31
2019-04-25T06:26:41.192Z,931.29
2019-04-25T06:27:41.168Z,931.28
2019-04-25T06:28:51.999Z,931.33
2019-04-25T06:29:41.126Z,931.35
2019-04-25T06:30:41.123Z,931.36
2019-04-25T06:31:43.791Z,931.34
2019-04-25T06:32:41.080Z,931.28
2019-04-25T06:33:41.154Z,931.29
2019-04-25T06:34:41.038Z,931.29
2019-04-25T06:35:41.016Z,931.26
2019-04-25T06:36:40.995Z,931.22
2019-04-25T06:37:41.379Z,931.22
2019-04-25T06:38:40.952Z,931.12
2019-04-25T06:39:40.926Z,931.18
2019-04-25T06:40:40.906Z,931.14
2019-04-25T06:41:40.882Z,931.16
2019-04-25T06:42:43.430Z,931.19
2019-04-25T06:43:40.848Z,931.18
2019-04-25T06:44:40.819Z,931.18
2019-04-25T06:45:40.808Z,931.19
2019-04-25T06:46:40.773Z,931.18
2019-04-25T06:47:40.755Z,931.19
2019-04-25T06:48:40.738Z,931.23
2019-04-25T06:49:40.712Z,931.21
2019-04-25T06:50:41.602Z,931.20
2019-04-25T06:51:41.211Z,931.21
2019-04-25T06:52:41.150Z,931.16
2019-04-25T06:53:41.143Z,931.15
2019-04-25T06:54:40.606Z,931.15
2019-04-25T06:55:40.586Z,931.12
2019-04-25T06:56:40.541Z,931.10
2019-04-25T06:57:40.531Z,931.07
2019-04-25T06:58:40.959Z,931.05
2019-04-25T06:59:41.552Z,931.02
2019-04-25T07:00:42.565Z,931.07
2019-04-25T07:01:40.463Z,931.05
2019-04-25T07:02:40.420Z,931.04
2019-04-25T07:03:40.397Z,931.05
2019-04-25T07:04:40.393Z,931.05
2019-04-25T07:05:40.875Z,931.03
2019-04-25T07:06:40.347Z,931.03
2019-04-25T07:07:40.325Z,930.99
2019-04-25T07:08:40.314Z,931.02
2019-04-25T07:10:40.243Z,930.99
2019-04-25T07:11:40.225Z,930.98
2019-04-25T07:12:40.224Z,930.95
2019-04-25T07:13:40.183Z,930.96
2019-04-25T07:14:40.178Z,930.95
2019-04-25T07:15:40.159Z,930.91
2019-04-25T07:16:40.135Z,930.89
2019-04-25T07:17:40.120Z,930.83
2019-04-25T07:18:40.103Z,930.85
2019-04-25T07:19:40.077Z,930.85
2019-04-25T07:20:40.057Z,930.88
2019-04-25T07:21:40.031Z,930.86
2019-04-25T07:22:40.009Z,930.86
2019-04-25T07:23:40.423Z,930.88
2019-04-25T07:24:39.967Z,930.84
2019-04-25T07:25:39.948Z,930.74
2019-04-25T07:26:39.950Z,930.79
2019-04-25T07:27:39.907Z,930.74
2019-04-25T07:28:39.903Z,930.77
2019-04-25T07:29:39.874Z,930.74
2019-04-25T07:30:50.213Z,930.72
2019-04-25T07:31:39.806Z,930.72
2019-04-25T07:32:40.337Z,930.73
2019-04-25T07:33:39.763Z,930.70
2019-04-25T07:34:39.758Z,930.73
2019-04-25T07:35:39.733Z,930.73
2019-04-25T07:36:39.716Z,930.77
2019-04-25T07:37:41.772Z,930.75
2019-04-25T07:38:39.670Z,930.78
2019-04-25T07:39:39.662Z,930.81
2019-04-25T07:40:39.608Z,930.84
2019-04-25T07:41:39.610Z,930.87
2019-04-25T07:42:39.587Z,930.87
2019-04-25T07:43:39.571Z,930.86
2019-04-25T07:44:49.979Z,930.87
2019-04-25T07:45:39.524Z,930.84
2019-04-25T07:46:40.128Z,930.82
2019-04-25T07:47:39.490Z,930.84
2019-04-25T07:48:39.463Z,930.83
2019-04-25T07:49:39.440Z,930.86
2019-04-25T07:50:39.420Z,930.82
2019-04-25T07:51:39.395Z,930.88
2019-04-25T07:52:39.378Z,930.86
2019-04-25T07:53:39.351Z,930.89
2019-04-25T07:54:39.306Z,930.86
2019-04-25T07:55:39.292Z,930.84
2019-04-25T07:56:39.285Z,930.83
2019-04-25T07:57:39.269Z,930.86
2019-04-25T07:58:49.589Z,930.89
2019-04-25T07:59:39.225Z,930.87
2019-04-25T08:00:39.184Z,930.88
2019-04-25T08:01:39.180Z,930.90
2019-04-25T08:02:39.569Z,930.92
2019-04-25T08:03:39.130Z,930.88
2019-04-25T08:04:39.108Z,930.89
2019-04-25T08:05:39.091Z,930.85
2019-04-25T08:06:39.607Z,930.88
2019-04-25T08:07:39.052Z,930.90
2019-04-25T08:08:39.010Z,930.91
2019-04-25T08:09:38.986Z,930.89
2019-04-25T08:10:38.976Z,930.92
2019-04-25T08:11:38.961Z,930.88
2019-04-25T08:12:39.410Z,930.88
2019-04-25T08:13:39.864Z,930.86
2019-04-25T08:14:38.881Z,930.90
2019-04-25T08:15:38.853Z,930.87
2019-04-25T08:16:39.394Z,930.91
2019-04-25T08:17:40.000Z,930.87
2019-04-25T08:18:39.010Z,930.88
2019-04-25T08:19:39.334Z,930.87
2019-04-25T08:20:40.140Z,930.85
2019-04-25T08:21:38.752Z,930.85
2019-04-25T08:22:52.022Z,930.80
2019-04-25T08:23:38.949Z,930.82
2019-04-25T08:24:39.117Z,930.76
2019-04-25T08:25:39.647Z,930.79
2019-04-25T08:26:39.402Z,930.82
2019-04-25T08:27:38.920Z,930.82
2019-04-25T08:28:50.322Z,930.85
2019-04-25T08:29:39.687Z,930.87
2019-04-25T08:30:39.483Z,930.89
2019-04-25T08:31:39.368Z,930.85
2019-04-25T08:32:38.507Z,930.90
2019-04-25T08:33:39.094Z,930.84
2019-04-25T08:34:39.370Z,930.88
2019-04-25T08:35:38.446Z,930.94
2019-04-25T08:36:38.895Z,930.81
2019-04-25T08:37:38.377Z,930.84
2019-04-25T08:38:38.371Z,930.90
2019-04-25T08:39:38.878Z,930.91
2019-04-25T08:40:39.003Z,930.92
2019-04-25T08:41:38.510Z,930.92
2019-04-25T08:42:38.292Z,930.95
2019-04-25T08:43:39.407Z,930.94
2019-04-25T08:44:39.169Z,930.96
2019-04-25T08:45:38.463Z,930.96
2019-04-25T08:46:39.357Z,931.00
2019-04-25T08:47:38.180Z,930.97
2019-04-25T08:48:38.157Z,931.02
2019-04-25T08:49:38.230Z,930.98
2019-04-25T08:50:40.141Z,931.04
2019-04-25T08:51:38.100Z,931.04
2019-04-25T08:52:38.072Z,931.06
2019-04-25T08:53:38.706Z,931.05
2019-04-25T08:54:41.135Z,931.03
2019-04-25T08:55:38.301Z,931.06
2019-04-25T08:56:37.992Z,930.98
2019-04-25T08:57:37.984Z,931.02
2019-04-25T08:58:37.925Z,930.99
2019-04-25T08:59:42.535Z,931.04
2019-04-25T09:00:38.298Z,931.06
2019-04-25T09:01:39.551Z,931.09
2019-04-25T09:02:38.890Z,931.13
2019-04-25T09:03:38.033Z,931.23
2019-04-25T09:04:38.057Z,931.23
2019-04-25T09:05:38.854Z,931.28
2019-04-25T09:06:38.616Z,931.30
2019-04-25T09:07:39.000Z,931.26
2019-04-25T09:08:38.448Z,931.32
2019-04-25T09:09:37.947Z,931.25
2019-04-25T09:10:38.956Z,931.30
2019-04-25T09:11:39.207Z,931.33
2019-04-25T09:12:37.805Z,931.35
2019-04-25T09:13:38.641Z,931.34
2019-04-25T09:14:39.023Z,931.36
2019-04-25T09:15:38.072Z,931.34
2019-04-25T09:16:37.902Z,931.38
2019-04-25T09:17:38.060Z,931.40
2019-04-25T09:18:38.262Z,931.40
2019-04-25T09:19:38.429Z,931.42
2019-04-25T09:20:40.266Z,931.43
2019-04-25T09:21:37.826Z,931.51
2019-04-25T09:22:38.584Z,931.52
2019-04-25T09:23:37.957Z,931.52
2019-04-25T09:24:38.105Z,931.53
2019-04-25T09:25:38.638Z,931.55
2019-04-25T09:26:38.386Z,931.57
2019-04-25T09:27:39.727Z,931.57
2019-04-25T09:28:38.947Z,931.60
2019-04-25T09:29:37.831Z,931.59
2019-04-25T09:30:38.298Z,931.57
2019-04-25T09:31:38.788Z,931.55
2019-04-25T09:32:37.763Z,931.56
2019-04-25T09:33:37.222Z,931.59
2019-04-25T09:34:38.113Z,931.61
2019-04-25T09:35:37.724Z,931.53
2019-04-25T09:36:37.736Z,931.54
2019-04-25T09:37:37.108Z,931.54
2019-04-25T09:38:37.099Z,931.55
2019-04-25T09:39:37.083Z,931.58
2019-04-25T09:40:37.442Z,931.57
2019-04-25T09:41:37.886Z,931.57
2019-04-25T09:42:37.066Z,931.60
2019-04-25T09:43:37.301Z,931.62
2019-04-25T09:44:38.206Z,931.61
2019-04-25T09:45:37.630Z,931.63
2019-04-25T09:46:37.328Z,931.65
2019-04-25T09:47:37.133Z,931.62
2019-04-25T09:48:37.531Z,931.69
2019-04-25T09:49:37.897Z,931.67
2019-04-25T09:50:38.237Z,931.69
2019-04-25T09:51:37.615Z,931.66
2019-04-25T09:52:37.718Z,931.67
2019-04-25T09:53:42.404Z,931.75
2019-04-25T09:54:37.955Z,931.77
2019-04-25T09:55:37.550Z,931.77
2019-04-25T09:56:36.727Z,931.72
2019-04-25T09:57:37.339Z,931.76
2019-04-25T09:58:36.665Z,931.78
2019-04-25T09:59:37.540Z,931.80
2019-04-25T10:00:36.637Z,931.79
2019-04-25T10:01:36.636Z,931.81
2019-04-25T10:02:36.899Z,931.82
2019-04-25T10:03:36.713Z,931.84
2019-04-25T10:04:36.934Z,931.86
2019-04-25T10:05:37.095Z,931.90
2019-04-25T10:06:37.288Z,931.91
2019-04-25T10:08:37.048Z,931.90
2019-04-25T10:09:36.451Z,931.91
2019-04-25T10:10:36.417Z,931.96
2019-04-25T10:11:36.389Z,931.93
2019-04-25T10:12:37.264Z,931.94
2019-04-25T10:13:36.353Z,931.96
2019-04-25T10:14:36.772Z,931.94
2019-04-25T10:15:37.474Z,931.90
2019-04-25T10:16:36.305Z,931.92
2019-04-25T10:17:37.581Z,931.95
2019-04-25T10:18:37.038Z,931.92
2019-04-25T10:19:37.612Z,931.98
2019-04-25T10:20:37.590Z,931.93
2019-04-25T10:21:37.952Z,931.97
2019-04-25T10:22:36.178Z,932.01
2019-04-25T10:23:36.160Z,931.98
2019-04-25T10:24:36.141Z,931.96
2019-04-25T10:26:36.099Z,932.02
2019-04-25T10:27:36.082Z,932.00
2019-04-25T10:28:36.049Z,932.03
2019-04-25T10:29:44.895Z,932.01
2019-04-25T10:30:36.010Z,932.12
2019-04-25T10:31:35.995Z,932.13
2019-04-25T10:32:35.969Z,932.14
2019-04-25T10:33:35.952Z,932.14
2019-04-25T10:34:36.459Z,932.21
2019-04-25T10:35:46.592Z,932.22
2019-04-25T10:36:38.738Z,932.18
2019-04-25T10:37:35.852Z,932.24
2019-04-25T10:38:35.917Z,932.24
2019-04-25T10:39:35.833Z,932.29
2019-04-25T10:40:36.309Z,932.25
2019-04-25T10:41:36.321Z,932.27
2019-04-25T10:42:35.761Z,932.29
2019-04-25T10:43:36.682Z,932.30
2019-04-25T10:44:35.728Z,932.28
2019-04-25T10:45:35.707Z,932.24
2019-04-25T10:46:35.664Z,932.32
2019-04-25T10:47:35.666Z,932.32
2019-04-25T10:48:35.628Z,932.37
2019-04-25T10:49:35.627Z,932.45
2019-04-25T10:50:35.607Z,932.40
2019-04-25T10:51:35.582Z,932.35
2019-04-25T10:52:35.567Z,932.45
2019-04-25T10:53:35.547Z,932.52
2019-04-25T10:54:35.561Z,932.51
2019-04-25T10:55:35.491Z,932.50
2019-04-25T10:56:35.478Z,932.48
2019-04-25T10:57:35.454Z,932.42
2019-04-25T10:58:35.461Z,932.45
2019-04-25T10:59:36.578Z,932.31
2019-04-25T11:00:36.348Z,932.42
2019-04-25T11:01:35.940Z,932.58
2019-04-25T11:02:35.799Z,932.58
2019-04-25T11:03:35.962Z,932.59
2019-04-25T11:04:35.350Z,932.63
2019-04-25T11:05:35.854Z,932.59
2019-04-25T11:06:35.309Z,932.57
2019-04-25T11:07:35.290Z,932.51
2019-04-25T11:08:35.272Z,932.63
2019-04-25T11:09:36.101Z,932.66
2019-04-25T11:10:36.787Z,932.64
2019-04-25T11:11:35.755Z,932.63
2019-04-25T11:12:36.141Z,932.66
2019-04-25T11:13:35.722Z,932.64
2019-04-25T11:14:36.093Z,932.74
2019-04-25T11:15:35.682Z,932.75
2019-04-25T11:16:35.137Z,932.74
2019-04-25T11:17:35.121Z,932.78
2019-04-25T11:18:35.654Z,932.86
2019-04-25T11:20:35.596Z,932.89
2019-04-25T11:21:35.992Z,932.89
2019-04-25T11:22:35.563Z,932.99
2019-04-25T11:23:35.021Z,933.03
2019-04-25T11:24:35.943Z,933.07
2019-04-25T11:25:34.971Z,932.76
2019-04-25T11:26:34.971Z,932.93
2019-04-25T11:27:34.948Z,932.99
2019-04-25T11:28:34.934Z,932.95
2019-04-25T11:29:34.916Z,933.03
2019-04-25T11:30:34.880Z,933.04
2019-04-25T11:31:34.893Z,933.06
2019-04-25T11:32:35.914Z,933.06
2019-04-25T11:33:35.382Z,933.09
2019-04-25T11:35:35.771Z,933.19
2019-04-25T11:36:35.756Z,933.22
2019-04-25T11:37:35.328Z,933.13
2019-04-25T11:38:35.319Z,933.12
2019-04-25T11:39:34.767Z,933.10
2019-04-25T11:40:35.884Z,933.15
2019-04-25T11:41:34.714Z,933.07
2019-04-25T11:42:35.241Z,932.92
2019-04-25T11:43:35.659Z,932.98
2019-04-25T11:44:35.201Z,933.06
2019-04-25T11:45:35.180Z,932.97
2019-04-25T11:46:35.187Z,932.95
2019-04-25T11:48:35.752Z,933.06
2019-04-25T11:49:35.136Z,932.92
2019-04-25T11:50:36.926Z,933.02
2019-04-25T11:51:34.577Z,933.13
2019-04-25T11:52:34.557Z,933.13
2019-04-25T11:53:35.478Z,933.23
2019-04-25T11:54:35.055Z,933.19
2019-04-25T11:55:35.653Z,933.17
2019-04-25T11:56:35.639Z,933.13
2019-04-25T11:57:34.923Z,933.13
2019-04-25T11:58:34.442Z,933.16
2019-04-25T11:59:34.452Z,933.15
2019-04-25T12:00:34.418Z,933.14
2019-04-25T12:01:34.421Z,933.14
2019-04-25T12:02:34.478Z,933.14
2019-04-25T12:03:34.385Z,933.18
2019-04-25T12:04:35.099Z,933.20
2019-04-25T12:05:34.885Z,933.25
2019-04-25T12:06:34.839Z,933.20
2019-04-25T12:07:34.834Z,933.25
2019-04-25T12:08:35.048Z,933.18
2019-04-25T12:09:34.292Z,933.20
2019-04-25T12:10:34.814Z,933.17
2019-04-25T12:11:34.703Z,933.20
2019-04-25T12:13:34.973Z,933.18
2019-04-25T12:15:34.747Z,933.24
2019-04-25T12:16:35.035Z,933.32
2019-04-25T12:18:35.492Z,933.31
2019-04-25T12:19:37.855Z,933.35
2019-04-25T12:20:34.679Z,933.32
2019-04-25T12:21:34.555Z,933.37
2019-04-25T12:22:34.738Z,933.44
2019-04-25T12:23:34.519Z,933.42
2019-04-25T12:24:34.709Z,933.44
2019-04-25T12:25:35.199Z,933.42
2019-04-25T12:26:34.054Z,933.46
2019-04-25T12:27:34.039Z,933.50
2019-04-25T12:28:34.026Z,933.48
2019-04-25T12:29:33.994Z,933.46
2019-04-25T12:30:38.323Z,933.42
2019-04-25T12:31:34.248Z,933.42
2019-04-25T12:32:35.313Z,933.42
2019-04-25T12:33:33.950Z,933.43
2019-04-25T12:34:33.937Z,933.42
2019-04-25T12:35:33.903Z,933.48
2019-04-25T12:36:34.142Z,933.47
2019-04-25T12:37:33.897Z,933.43
2019-04-25T12:38:35.424Z,933.41